createdAt,value
2016-12-30T00:00:24.320Z,17.69
2016-12-30T00:01:04.953Z,17.76
2016-12-30T00:01:45.673Z,17.76
2016-12-30T00:02:26.311Z,17.73
2016-12-30T00:03:06.949Z,17.84
2016-12-30T00:03:47.581Z,17.84
2016-12-30T00:04:28.222Z,17.73
2016-12-30T00:05:08.869Z,17.7
2016-12-30T00:05:49.520Z,17.79
2016-12-30T00:06:30.149Z,17.78
2016-12-30T00:07:10.784Z,17.69
2016-12-30T00:07:51.430Z,17.79
2016-12-30T00:08:32.095Z,17.74
2016-12-30T00:09:12.683Z,17.81
2016-12-30T00:09:53.315Z,17.73
2016-12-30T00:10:33.962Z,17.7
2016-12-30T00:11:14.597Z,17.74
2016-12-30T00:11:55.218Z,17.74
2016-12-30T00:12:35.851Z,17.76
2016-12-30T00:13:16.485Z,17.84
2016-12-30T00:13:57.119Z,17.78
2016-12-30T00:14:37.758Z,17.73
2016-12-30T00:15:18.472Z,17.69
2016-12-30T00:15:59.098Z,17.71
2016-12-30T00:16:39.825Z,17.63
2016-12-30T00:17:20.478Z,17.67
2016-12-30T00:18:01.111Z,17.79
2016-12-30T00:18:41.760Z,17.73
2016-12-30T00:19:22.392Z,17.76
2016-12-30T00:20:03.032Z,17.71
2016-12-30T00:20:43.695Z,17.76
2016-12-30T00:21:24.330Z,17.78
2016-12-30T00:22:04.963Z,17.67
2016-12-30T00:22:45.594Z,17.76
2016-12-30T00:23:26.237Z,17.76
2016-12-30T00:24:06.870Z,17.74
2016-12-30T00:24:47.495Z,17.74
2016-12-30T00:25:28.121Z,17.76
2016-12-30T00:26:08.760Z,17.74
2016-12-30T00:26:49.407Z,17.69
2016-12-30T00:27:30.050Z,17.81
2016-12-30T00:28:10.679Z,17.76
2016-12-30T00:28:51.303Z,17.73
2016-12-30T00:29:31.936Z,17.74
2016-12-30T00:30:12.597Z,17.71
2016-12-30T00:30:53.222Z,17.71
2016-12-30T00:31:33.858Z,17.59
2016-12-30T00:32:14.490Z,17.64
2016-12-30T00:32:55.124Z,17.63
2016-12-30T00:33:35.757Z,17.7
2016-12-30T00:34:16.390Z,17.64
2016-12-30T00:34:57.027Z,17.71
2016-12-30T00:35:37.660Z,17.76
2016-12-30T00:36:18.299Z,17.74
2016-12-30T00:36:58.927Z,17.79
2016-12-30T00:37:39.560Z,17.69
2016-12-30T00:38:20.203Z,17.76
2016-12-30T00:39:00.834Z,17.73
2016-12-30T00:39:41.471Z,17.76
2016-12-30T00:40:22.126Z,17.71
2016-12-30T00:41:02.768Z,17.74
2016-12-30T00:41:43.412Z,17.71
2016-12-30T00:42:24.112Z,17.73
2016-12-30T00:43:04.744Z,17.7
2016-12-30T00:43:45.396Z,17.73
2016-12-30T00:44:26.032Z,17.67
2016-12-30T00:45:06.663Z,17.76
2016-12-30T00:45:47.285Z,17.73
2016-12-30T00:46:27.913Z,17.7
2016-12-30T00:47:08.564Z,17.78
2016-12-30T00:47:49.197Z,17.69
2016-12-30T00:48:29.825Z,17.73
2016-12-30T00:49:10.501Z,17.81
2016-12-30T00:49:51.178Z,17.67
2016-12-30T00:50:31.816Z,17.73
2016-12-30T00:51:12.460Z,17.74
2016-12-30T00:51:53.088Z,17.71
2016-12-30T00:52:33.719Z,17.73
2016-12-30T00:53:14.355Z,17.78
2016-12-30T00:53:54.991Z,17.76
2016-12-30T00:54:35.628Z,17.71
2016-12-30T00:55:16.248Z,17.74
2016-12-30T00:55:56.875Z,17.7
2016-12-30T00:56:37.610Z,17.73
2016-12-30T00:57:18.249Z,17.66
2016-12-30T00:57:58.884Z,17.79
2016-12-30T00:58:39.559Z,17.73
2016-12-30T00:59:20.189Z,17.76
2016-12-30T01:00:00.819Z,17.71
2016-12-30T01:00:41.453Z,17.71
2016-12-30T01:01:22.093Z,17.71
2016-12-30T01:02:02.723Z,17.59
2016-12-30T01:02:43.355Z,17.67
2016-12-30T01:03:23.999Z,17.62
2016-12-30T01:04:04.630Z,17.73
2016-12-30T01:04:45.270Z,17.66
2016-12-30T01:05:25.933Z,17.59
2016-12-30T01:06:06.576Z,17.63
2016-12-30T01:06:47.206Z,17.71
2016-12-30T01:07:27.834Z,17.62
2016-12-30T01:08:08.470Z,17.66
2016-12-30T01:08:49.115Z,17.57
2016-12-30T01:09:29.746Z,17.7
2016-12-30T01:10:10.386Z,17.7
2016-12-30T01:10:51.017Z,17.7
2016-12-30T01:11:31.653Z,17.71
2016-12-30T01:12:12.295Z,17.55
2016-12-30T01:12:52.933Z,17.7
2016-12-30T01:13:33.568Z,17.7
2016-12-30T01:14:14.201Z,17.67
2016-12-30T01:14:54.841Z,17.67
2016-12-30T01:15:35.471Z,17.64
2016-12-30T01:16:16.114Z,17.64
2016-12-30T01:16:56.736Z,17.64
2016-12-30T01:17:37.404Z,17.67
2016-12-30T01:18:18.032Z,17.64
2016-12-30T01:18:58.659Z,17.64
2016-12-30T01:19:39.326Z,17.67
2016-12-30T01:20:19.954Z,17.64
2016-12-30T01:21:00.597Z,17.66
2016-12-30T01:21:41.259Z,17.67
2016-12-30T01:22:21.901Z,17.71
2016-12-30T01:23:02.532Z,17.71
2016-12-30T01:23:43.183Z,17.69
2016-12-30T01:24:23.813Z,17.69
2016-12-30T01:25:04.456Z,17.57
2016-12-30T01:25:45.113Z,17.64
2016-12-30T01:26:25.744Z,17.7
2016-12-30T01:27:06.369Z,17.67
2016-12-30T01:27:47.018Z,17.64
2016-12-30T01:28:27.650Z,17.66
2016-12-30T01:29:08.283Z,17.69
2016-12-30T01:29:48.935Z,17.63
2016-12-30T01:30:29.577Z,17.64
2016-12-30T01:31:10.205Z,17.66
2016-12-30T01:31:50.840Z,17.55
2016-12-30T01:32:31.470Z,17.55
2016-12-30T01:33:12.100Z,17.55
2016-12-30T01:33:52.738Z,17.55
2016-12-30T01:34:33.358Z,17.62
2016-12-30T01:35:13.987Z,17.64
2016-12-30T01:35:54.614Z,17.63
2016-12-30T01:36:35.260Z,17.62
2016-12-30T01:37:15.915Z,17.62
2016-12-30T01:37:56.533Z,17.69
2016-12-30T01:38:37.169Z,17.62
2016-12-30T01:39:17.815Z,17.63
2016-12-30T01:39:58.455Z,17.51
2016-12-30T01:40:39.084Z,17.63
2016-12-30T01:41:19.829Z,17.54
2016-12-30T01:42:00.578Z,17.59
2016-12-30T01:42:41.209Z,17.59
2016-12-30T01:43:21.832Z,17.66
2016-12-30T01:44:02.462Z,17.59
2016-12-30T01:44:43.091Z,17.64
2016-12-30T01:45:23.719Z,17.67
2016-12-30T01:46:04.358Z,17.59
2016-12-30T01:46:44.986Z,17.63
2016-12-30T01:47:25.613Z,17.63
2016-12-30T01:48:06.239Z,17.57
2016-12-30T01:48:46.887Z,17.63
2016-12-30T01:49:27.514Z,17.55
2016-12-30T01:50:08.158Z,17.57
2016-12-30T01:50:48.791Z,17.59
2016-12-30T01:51:29.428Z,17.59
2016-12-30T01:52:10.059Z,17.57
2016-12-30T01:52:50.679Z,17.54
2016-12-30T01:53:31.319Z,17.59
2016-12-30T01:54:11.942Z,17.57
2016-12-30T01:54:52.576Z,17.57
2016-12-30T01:55:33.211Z,17.55
2016-12-30T01:56:13.846Z,17.55
2016-12-30T01:56:54.477Z,17.57
2016-12-30T01:57:35.109Z,17.57
2016-12-30T01:58:15.751Z,17.55
2016-12-30T01:58:56.379Z,17.55
2016-12-30T01:59:37.009Z,17.57
2016-12-30T02:00:17.682Z,17.57
2016-12-30T02:00:58.307Z,17.55
2016-12-30T02:01:38.945Z,17.57
2016-12-30T02:02:19.619Z,17.62
2016-12-30T02:03:00.237Z,17.55
2016-12-30T02:03:40.865Z,17.59
2016-12-30T02:04:21.540Z,17.54
2016-12-30T02:05:02.177Z,17.55
2016-12-30T02:05:42.799Z,17.55
2016-12-30T02:06:23.462Z,17.59
2016-12-30T02:07:04.101Z,17.53
2016-12-30T02:07:44.741Z,17.54
2016-12-30T02:08:25.364Z,17.54
2016-12-30T02:09:06.011Z,17.55
2016-12-30T02:09:46.645Z,17.54
2016-12-30T02:10:27.269Z,17.59
2016-12-30T02:11:07.897Z,17.53
2016-12-30T02:11:48.538Z,17.5
2016-12-30T02:12:29.163Z,17.47
2016-12-30T02:13:09.802Z,17.47
2016-12-30T02:13:50.456Z,17.47
2016-12-30T02:14:31.093Z,17.51
2016-12-30T02:15:11.722Z,17.5
2016-12-30T02:15:52.379Z,17.47
2016-12-30T02:16:33.065Z,17.47
2016-12-30T02:17:13.696Z,17.48
2016-12-30T02:17:54.324Z,17.5
2016-12-30T02:18:34.951Z,17.48
2016-12-30T02:19:15.570Z,17.46
2016-12-30T02:19:56.196Z,17.46
2016-12-30T02:20:36.926Z,17.51
2016-12-30T02:21:17.552Z,17.41
2016-12-30T02:21:58.195Z,17.5
2016-12-30T02:22:38.826Z,17.46
2016-12-30T02:23:19.455Z,17.44
2016-12-30T02:24:00.123Z,17.47
2016-12-30T02:24:40.758Z,17.47
2016-12-30T02:25:21.398Z,17.46
2016-12-30T02:26:02.024Z,17.4
2016-12-30T02:26:42.648Z,17.44
2016-12-30T02:27:23.273Z,17.48
2016-12-30T02:28:03.905Z,17.48
2016-12-30T02:28:44.586Z,17.43
2016-12-30T02:29:25.219Z,17.5
2016-12-30T02:30:05.843Z,17.47
2016-12-30T02:30:46.539Z,17.47
2016-12-30T02:31:27.159Z,17.41
2016-12-30T02:32:07.803Z,17.4
2016-12-30T02:32:48.436Z,17.44
2016-12-30T02:33:29.059Z,17.4
2016-12-30T02:34:09.695Z,17.38
2016-12-30T02:34:50.319Z,17.41
2016-12-30T02:35:30.947Z,17.48
2016-12-30T02:36:11.580Z,17.41
2016-12-30T02:36:52.207Z,17.44
2016-12-30T02:37:32.836Z,17.4
2016-12-30T02:38:13.516Z,17.46
2016-12-30T02:38:54.145Z,17.44
2016-12-30T02:39:34.768Z,17.44
2016-12-30T02:40:16.357Z,17.5
2016-12-30T02:40:56.986Z,17.43
2016-12-30T02:41:37.615Z,17.4
2016-12-30T02:42:18.278Z,17.41
2016-12-30T02:42:58.907Z,17.46
2016-12-30T02:43:39.532Z,17.44
2016-12-30T02:44:20.214Z,17.46
2016-12-30T02:45:00.848Z,17.4
2016-12-30T02:45:41.467Z,17.44
2016-12-30T02:46:22.093Z,17.44
2016-12-30T02:47:02.729Z,17.47
2016-12-30T02:47:43.380Z,17.33
2016-12-30T02:48:24.013Z,17.4
2016-12-30T02:49:04.636Z,17.4
2016-12-30T02:49:45.258Z,17.41
2016-12-30T02:50:25.885Z,17.43
2016-12-30T02:51:06.515Z,17.38
2016-12-30T02:51:47.180Z,17.4
2016-12-30T02:52:27.827Z,17.36
2016-12-30T02:53:08.496Z,17.38
2016-12-30T02:53:49.142Z,17.41
2016-12-30T02:54:29.810Z,17.38
2016-12-30T02:55:10.528Z,17.44
2016-12-30T02:55:51.157Z,17.41
2016-12-30T02:56:31.780Z,17.4
2016-12-30T02:57:12.445Z,17.4
2016-12-30T02:57:53.068Z,17.46
2016-12-30T02:58:33.705Z,17.44
2016-12-30T02:59:14.340Z,17.44
2016-12-30T02:59:54.967Z,17.43
2016-12-30T03:00:35.598Z,17.36
2016-12-30T03:01:16.230Z,17.44
2016-12-30T03:01:56.863Z,17.36
2016-12-30T03:02:37.491Z,17.46
2016-12-30T03:03:18.119Z,17.44
2016-12-30T03:03:58.747Z,17.44
2016-12-30T03:04:39.375Z,17.38
2016-12-30T03:05:20.002Z,17.4
2016-12-30T03:06:00.627Z,17.36
2016-12-30T03:06:41.356Z,17.41
2016-12-30T03:07:21.993Z,17.38
2016-12-30T03:08:02.619Z,17.32
2016-12-30T03:08:43.258Z,17.3
2016-12-30T03:09:23.889Z,17.32
2016-12-30T03:10:04.520Z,17.35
2016-12-30T03:10:45.241Z,17.36
2016-12-30T03:11:25.988Z,17.38
2016-12-30T03:12:06.625Z,17.38
2016-12-30T03:12:47.256Z,17.33
2016-12-30T03:13:27.891Z,17.29
2016-12-30T03:14:08.528Z,17.33
2016-12-30T03:14:49.152Z,17.28
2016-12-30T03:15:29.785Z,17.23
2016-12-30T03:16:10.421Z,17.3
2016-12-30T03:16:51.058Z,17.26
2016-12-30T03:17:31.705Z,17.41
2016-12-30T03:18:12.338Z,17.36
2016-12-30T03:18:52.966Z,17.43
2016-12-30T03:19:33.602Z,17.35
2016-12-30T03:20:14.236Z,17.38
2016-12-30T03:20:54.864Z,17.35
2016-12-30T03:21:35.509Z,17.38
2016-12-30T03:22:16.132Z,17.38
2016-12-30T03:22:56.787Z,17.41
2016-12-30T03:23:37.426Z,17.36
2016-12-30T03:24:18.052Z,17.4
2016-12-30T03:24:58.682Z,17.32
2016-12-30T03:25:39.328Z,17.3
2016-12-30T03:26:19.955Z,17.3
2016-12-30T03:27:00.586Z,17.28
2016-12-30T03:27:41.218Z,17.36
2016-12-30T03:28:21.844Z,17.28
2016-12-30T03:29:02.483Z,17.35
2016-12-30T03:29:43.115Z,17.35
2016-12-30T03:30:23.741Z,17.35
2016-12-30T03:31:04.364Z,17.4
2016-12-30T03:31:44.996Z,17.38
2016-12-30T03:32:25.631Z,17.35
2016-12-30T03:33:06.358Z,17.35
2016-12-30T03:33:47.064Z,17.26
2016-12-30T03:34:27.692Z,17.28
2016-12-30T03:35:08.322Z,17.25
2016-12-30T03:35:49.585Z,17.28
2016-12-30T03:36:30.214Z,17.4
2016-12-30T03:37:10.908Z,17.32
2016-12-30T03:37:51.545Z,17.32
2016-12-30T03:38:32.173Z,17.32
2016-12-30T03:39:12.810Z,17.28
2016-12-30T03:39:53.445Z,17.28
2016-12-30T03:40:34.071Z,17.28
2016-12-30T03:41:14.810Z,17.29
2016-12-30T03:41:55.438Z,17.3
2016-12-30T03:42:36.075Z,17.28
2016-12-30T03:43:16.781Z,17.26
2016-12-30T03:43:57.422Z,17.22
2016-12-30T03:44:38.041Z,17.26
2016-12-30T03:45:18.708Z,17.33
2016-12-30T03:45:59.339Z,17.33
2016-12-30T03:46:39.987Z,17.33
2016-12-30T03:47:20.666Z,17.35
2016-12-30T03:48:01.303Z,17.32
2016-12-30T03:48:41.928Z,17.22
2016-12-30T03:49:22.547Z,17.26
2016-12-30T03:50:03.176Z,17.17
2016-12-30T03:50:43.812Z,17.18
2016-12-30T03:51:24.463Z,17.22
2016-12-30T03:52:05.090Z,17.28
2016-12-30T03:52:45.768Z,17.23
2016-12-30T03:53:26.405Z,17.29
2016-12-30T03:54:07.029Z,17.25
2016-12-30T03:54:47.668Z,17.35
2016-12-30T03:55:28.302Z,17.29
2016-12-30T03:56:08.993Z,17.29
2016-12-30T03:56:49.582Z,17.29
2016-12-30T03:57:30.222Z,17.35
2016-12-30T03:58:10.907Z,17.3
2016-12-30T03:58:51.488Z,17.29
2016-12-30T03:59:32.116Z,17.32
2016-12-30T04:00:12.816Z,17.28
2016-12-30T04:00:53.380Z,17.32
2016-12-30T04:01:34.038Z,17.33
2016-12-30T04:02:14.675Z,17.32
2016-12-30T04:02:55.287Z,17.23
2016-12-30T04:03:35.918Z,17.29
2016-12-30T04:04:16.543Z,17.25
2016-12-30T04:04:57.199Z,17.28
2016-12-30T04:05:37.832Z,17.28
2016-12-30T04:06:18.462Z,17.25
2016-12-30T04:06:59.182Z,17.26
2016-12-30T04:07:39.806Z,17.29
2016-12-30T04:08:20.434Z,17.3
2016-12-30T04:09:01.055Z,17.28
2016-12-30T04:09:41.690Z,17.25
2016-12-30T04:10:22.354Z,17.29
2016-12-30T04:11:02.978Z,17.29
2016-12-30T04:11:43.608Z,17.25
2016-12-30T04:12:24.241Z,17.33
2016-12-30T04:13:04.883Z,17.28
2016-12-30T04:13:45.511Z,17.3
2016-12-30T04:14:26.138Z,17.32
2016-12-30T04:15:06.760Z,17.3
2016-12-30T04:15:47.385Z,17.33
2016-12-30T04:16:28.020Z,17.3
2016-12-30T04:17:08.652Z,17.26
2016-12-30T04:17:49.285Z,17.33
2016-12-30T04:18:29.900Z,17.22
2016-12-30T04:19:10.537Z,17.3
2016-12-30T04:19:51.227Z,17.2
2016-12-30T04:20:31.859Z,17.2
2016-12-30T04:21:12.494Z,17.22
2016-12-30T04:21:53.178Z,17.2
2016-12-30T04:22:33.802Z,17.2
2016-12-30T04:23:14.442Z,17.15
2016-12-30T04:23:55.070Z,17.23
2016-12-30T04:24:35.708Z,17.23
2016-12-30T04:25:16.337Z,17.26
2016-12-30T04:25:57.033Z,17.18
2016-12-30T04:26:37.666Z,17.23
2016-12-30T04:27:18.291Z,17.18
2016-12-30T04:27:59.001Z,17.13
2016-12-30T04:28:39.637Z,17.11
2016-12-30T04:29:20.266Z,17.18
2016-12-30T04:30:00.962Z,17.1
2016-12-30T04:30:41.594Z,17.15
2016-12-30T04:31:22.227Z,17.2
2016-12-30T04:32:02.890Z,17.17
2016-12-30T04:32:43.513Z,17.22
2016-12-30T04:33:24.147Z,17.18
2016-12-30T04:34:04.804Z,17.17
2016-12-30T04:34:45.434Z,17.14
2016-12-30T04:35:26.062Z,17.15
2016-12-30T04:36:06.688Z,17.15
2016-12-30T04:36:47.316Z,17.14
2016-12-30T04:37:27.945Z,17.2
2016-12-30T04:38:08.573Z,17.11
2016-12-30T04:38:49.214Z,17.08
2016-12-30T04:39:29.855Z,17.11
2016-12-30T04:40:10.482Z,17.1
2016-12-30T04:40:51.135Z,17.14
2016-12-30T04:41:31.781Z,17.14
2016-12-30T04:42:12.405Z,17.15
2016-12-30T04:42:53.034Z,17.11
2016-12-30T04:43:33.670Z,17.22
2016-12-30T04:44:14.297Z,17.18
2016-12-30T04:44:54.938Z,17.2
2016-12-30T04:45:35.568Z,17.15
2016-12-30T04:46:16.243Z,17.15
2016-12-30T04:46:56.869Z,17.13
2016-12-30T04:47:37.502Z,17.13
2016-12-30T04:48:18.203Z,17.1
2016-12-30T04:48:58.836Z,17.11
2016-12-30T04:49:39.463Z,17.17
2016-12-30T04:50:20.194Z,17.14
2016-12-30T04:51:00.909Z,17.11
2016-12-30T04:51:41.535Z,17.13
2016-12-30T04:52:22.162Z,17.1
2016-12-30T04:53:02.793Z,17.15
2016-12-30T04:53:43.432Z,17.14
2016-12-30T04:54:24.067Z,17.14
2016-12-30T04:55:04.701Z,17.08
2016-12-30T04:55:45.329Z,17.13
2016-12-30T04:56:25.949Z,17.17
2016-12-30T04:57:06.587Z,17.11
2016-12-30T04:57:47.225Z,17.1
2016-12-30T04:58:27.849Z,17.17
2016-12-30T04:59:08.564Z,17.1
2016-12-30T04:59:49.184Z,17.1
2016-12-30T05:00:29.815Z,17.22
2016-12-30T05:01:10.445Z,17.17
2016-12-30T05:01:51.070Z,17.17
2016-12-30T05:02:31.690Z,17.1
2016-12-30T05:03:12.320Z,17.08
2016-12-30T05:03:52.955Z,17.1
2016-12-30T05:04:33.588Z,17.11
2016-12-30T05:05:14.220Z,17.14
2016-12-30T05:05:54.859Z,17.13
2016-12-30T05:06:35.495Z,17.07
2016-12-30T05:07:16.119Z,17.14
2016-12-30T05:07:56.746Z,17.13
2016-12-30T05:08:37.379Z,17.1
2016-12-30T05:09:18.016Z,17.11
2016-12-30T05:09:58.635Z,17.11
2016-12-30T05:10:39.303Z,17.17
2016-12-30T05:11:19.941Z,17.13
2016-12-30T05:12:00.572Z,17.11
2016-12-30T05:12:41.241Z,17.11
2016-12-30T05:13:21.869Z,17.13
2016-12-30T05:14:02.504Z,17.07
2016-12-30T05:14:43.161Z,17.08
2016-12-30T05:15:23.792Z,17.1
2016-12-30T05:16:04.422Z,17.13
2016-12-30T05:16:45.089Z,17.06
2016-12-30T05:17:25.707Z,17.13
2016-12-30T05:18:06.338Z,17.11
2016-12-30T05:18:46.978Z,17.11
2016-12-30T05:19:27.622Z,17.13
2016-12-30T05:20:08.280Z,17.06
2016-12-30T05:20:48.906Z,17.1
2016-12-30T05:21:29.643Z,17.06
2016-12-30T05:22:10.293Z,17.08
2016-12-30T05:22:50.926Z,17.08
2016-12-30T05:23:31.553Z,17.08
2016-12-30T05:24:12.183Z,17.13
2016-12-30T05:24:52.813Z,17.08
2016-12-30T05:25:33.480Z,17.14
2016-12-30T05:26:14.101Z,17.1
2016-12-30T05:26:54.734Z,17.07
2016-12-30T05:27:35.456Z,17.14
2016-12-30T05:28:16.089Z,17.1
2016-12-30T05:28:56.726Z,17.14
2016-12-30T05:29:37.430Z,17.11
2016-12-30T05:30:18.055Z,17.08
2016-12-30T05:30:58.689Z,17.15
2016-12-30T05:31:39.325Z,17.11
2016-12-30T05:32:19.945Z,17.06
2016-12-30T05:33:00.576Z,17.07
2016-12-30T05:33:41.291Z,17.15
2016-12-30T05:34:21.927Z,17.08
2016-12-30T05:35:02.559Z,17.1
2016-12-30T05:35:43.197Z,17.13
2016-12-30T05:36:23.821Z,17.15
2016-12-30T05:37:04.452Z,17.11
2016-12-30T05:37:45.079Z,17.08
2016-12-30T05:38:25.710Z,17.11
2016-12-30T05:39:06.363Z,17.15
2016-12-30T05:39:46.989Z,17.13
2016-12-30T05:40:27.617Z,17.06
2016-12-30T05:41:08.274Z,17.1
2016-12-30T05:41:48.907Z,17.17
2016-12-30T05:42:29.544Z,17.15
2016-12-30T05:43:10.180Z,17.11
2016-12-30T05:43:50.811Z,17.03
2016-12-30T05:44:31.441Z,17.11
2016-12-30T05:45:12.087Z,17.07
2016-12-30T05:45:52.712Z,17.14
2016-12-30T05:46:33.339Z,17.1
2016-12-30T05:47:13.990Z,17.11
2016-12-30T05:47:54.648Z,17.11
2016-12-30T05:48:35.262Z,17.13
2016-12-30T05:49:15.897Z,17.13
2016-12-30T05:49:56.545Z,17.13
2016-12-30T05:50:37.174Z,17.08
2016-12-30T05:51:17.798Z,17.11
2016-12-30T05:51:58.435Z,17.15
2016-12-30T05:52:39.058Z,17.11
2016-12-30T05:53:19.701Z,17.13
2016-12-30T05:54:00.327Z,17.14
2016-12-30T05:54:40.962Z,17.13
2016-12-30T05:55:21.590Z,17.1
2016-12-30T05:56:02.224Z,17.11
2016-12-30T05:56:42.859Z,17.13
2016-12-30T05:57:23.491Z,17.13
2016-12-30T05:58:04.128Z,17.11
2016-12-30T05:58:44.751Z,17.14
2016-12-30T05:59:25.382Z,17.14
2016-12-30T06:00:06.000Z,17.13
2016-12-30T06:00:46.621Z,17.1
2016-12-30T06:01:27.305Z,17.14
2016-12-30T06:02:07.957Z,17.14
2016-12-30T06:02:48.594Z,17.11
2016-12-30T06:03:29.309Z,17.13
2016-12-30T06:04:09.936Z,17.1
2016-12-30T06:04:50.561Z,17.13
2016-12-30T06:05:31.311Z,17.13
2016-12-30T06:06:11.935Z,17.11
2016-12-30T06:06:52.560Z,17.08
2016-12-30T06:07:33.200Z,17.06
2016-12-30T06:08:13.831Z,17.06
2016-12-30T06:08:54.464Z,17.04
2016-12-30T06:09:35.090Z,17.04
2016-12-30T06:10:15.743Z,17.06
2016-12-30T06:10:56.367Z,17.08
2016-12-30T06:11:37.036Z,17.04
2016-12-30T06:12:17.672Z,17.04
2016-12-30T06:12:58.313Z,17.1
2016-12-30T06:13:38.941Z,17.1
2016-12-30T06:14:19.554Z,17.06
2016-12-30T06:15:00.178Z,17.04
2016-12-30T06:15:40.813Z,17.06
2016-12-30T06:16:21.467Z,17.04
2016-12-30T06:17:02.099Z,17.07
2016-12-30T06:17:42.725Z,17.08
2016-12-30T06:18:23.408Z,17.03
2016-12-30T06:19:04.043Z,17.07
2016-12-30T06:19:44.689Z,17.08
2016-12-30T06:20:25.321Z,17.08
2016-12-30T06:21:05.949Z,17.08
2016-12-30T06:21:46.575Z,16.99
2016-12-30T06:22:27.203Z,17.06
2016-12-30T06:23:07.831Z,17.04
2016-12-30T06:23:48.459Z,16.98
2016-12-30T06:24:29.085Z,17.06
2016-12-30T06:25:09.707Z,17.07
2016-12-30T06:25:50.341Z,17.03
2016-12-30T06:26:30.982Z,16.99
2016-12-30T06:27:11.609Z,17.06
2016-12-30T06:27:52.248Z,17.04
2016-12-30T06:28:32.866Z,17.04
2016-12-30T06:29:13.489Z,17.04
2016-12-30T06:29:54.184Z,17.04
2016-12-30T06:30:34.819Z,17.04
2016-12-30T06:31:15.441Z,16.99
2016-12-30T06:31:56.079Z,17.06
2016-12-30T06:32:36.752Z,17.03
2016-12-30T06:33:17.408Z,17.04
2016-12-30T06:33:58.048Z,17.03
2016-12-30T06:34:38.725Z,17.03
2016-12-30T06:35:19.350Z,17.03
2016-12-30T06:35:59.982Z,16.99
2016-12-30T06:36:40.649Z,16.99
2016-12-30T06:37:21.282Z,17.03
2016-12-30T06:38:01.901Z,17.04
2016-12-30T06:38:42.563Z,17.04
2016-12-30T06:39:23.186Z,16.98
2016-12-30T06:40:03.814Z,16.99
2016-12-30T06:40:44.449Z,17
2016-12-30T06:41:25.080Z,16.95
2016-12-30T06:42:05.702Z,16.96
2016-12-30T06:42:46.337Z,16.93
2016-12-30T06:43:26.963Z,16.98
2016-12-30T06:44:07.642Z,16.98
2016-12-30T06:44:48.274Z,16.89
2016-12-30T06:45:28.897Z,16.92
2016-12-30T06:46:09.563Z,16.96
2016-12-30T06:46:50.183Z,17.03
2016-12-30T06:47:30.811Z,17
2016-12-30T06:48:11.457Z,17
2016-12-30T06:48:52.085Z,16.96
2016-12-30T06:49:32.704Z,16.89
2016-12-30T06:50:13.445Z,16.98
2016-12-30T06:50:54.079Z,16.93
2016-12-30T06:51:34.713Z,16.88
2016-12-30T06:52:15.382Z,16.99
2016-12-30T06:52:56.016Z,16.9
2016-12-30T06:53:36.662Z,16.89
2016-12-30T06:54:17.296Z,16.96
2016-12-30T06:54:57.931Z,16.93
2016-12-30T06:55:38.560Z,16.93
2016-12-30T06:56:19.194Z,16.98
2016-12-30T06:56:59.829Z,16.92
2016-12-30T06:57:40.453Z,16.96
2016-12-30T06:58:21.091Z,16.96
2016-12-30T06:59:01.714Z,16.93
2016-12-30T06:59:42.346Z,16.95
2016-12-30T07:00:22.977Z,16.95
2016-12-30T07:01:03.599Z,16.93
2016-12-30T07:01:44.227Z,16.93
2016-12-30T07:02:24.863Z,16.86
2016-12-30T07:03:05.494Z,16.88
2016-12-30T07:03:46.121Z,16.92
2016-12-30T07:04:26.762Z,16.9
2016-12-30T07:05:07.391Z,16.86
2016-12-30T07:05:48.027Z,17
2016-12-30T07:06:28.692Z,16.89
2016-12-30T07:07:09.327Z,16.93
2016-12-30T07:07:49.952Z,16.86
2016-12-30T07:08:30.580Z,16.9
2016-12-30T07:09:11.242Z,16.9
2016-12-30T07:09:51.882Z,16.86
2016-12-30T07:10:32.508Z,16.89
2016-12-30T07:11:13.217Z,16.85
2016-12-30T07:11:53.859Z,16.9
2016-12-30T07:12:34.491Z,16.92
2016-12-30T07:13:15.148Z,16.9
2016-12-30T07:13:55.779Z,16.89
2016-12-30T07:14:36.421Z,16.88
2016-12-30T07:15:17.056Z,16.93
2016-12-30T07:15:57.681Z,16.89
2016-12-30T07:16:38.303Z,16.89
2016-12-30T07:17:18.937Z,16.95
2016-12-30T07:17:59.575Z,16.9
2016-12-30T07:18:40.284Z,16.89
2016-12-30T07:19:20.922Z,16.96
2016-12-30T07:20:01.545Z,16.85
2016-12-30T07:20:42.186Z,16.89
2016-12-30T07:21:22.814Z,16.92
2016-12-30T07:22:03.438Z,16.9
2016-12-30T07:22:44.144Z,16.92
2016-12-30T07:23:24.789Z,16.89
2016-12-30T07:24:05.417Z,16.89
2016-12-30T07:24:46.049Z,16.9
2016-12-30T07:25:26.714Z,16.89
2016-12-30T07:26:07.339Z,16.9
2016-12-30T07:26:47.972Z,16.93
2016-12-30T07:27:28.601Z,16.89
2016-12-30T07:28:09.233Z,16.85
2016-12-30T07:28:49.864Z,16.89
2016-12-30T07:29:30.490Z,16.86
2016-12-30T07:30:11.123Z,16.89
2016-12-30T07:30:51.779Z,16.88
2016-12-30T07:31:32.404Z,16.9
2016-12-30T07:32:13.037Z,16.85
2016-12-30T07:32:53.692Z,16.9
2016-12-30T07:33:34.325Z,16.86
2016-12-30T07:34:14.956Z,16.89
2016-12-30T07:34:55.597Z,16.93
2016-12-30T07:35:36.217Z,16.89
2016-12-30T07:36:16.848Z,16.93
2016-12-30T07:36:57.495Z,16.9
2016-12-30T07:37:38.123Z,16.93
2016-12-30T07:38:18.755Z,16.83
2016-12-30T07:38:59.508Z,16.89
2016-12-30T07:39:40.208Z,16.9
2016-12-30T07:40:20.835Z,16.89
2016-12-30T07:41:01.470Z,16.92
2016-12-30T07:41:42.105Z,16.92
2016-12-30T07:42:22.726Z,16.89
2016-12-30T07:43:03.352Z,16.92
2016-12-30T07:43:43.985Z,16.9
2016-12-30T07:44:24.619Z,16.9
2016-12-30T07:45:05.255Z,16.9
2016-12-30T07:45:45.888Z,16.9
2016-12-30T07:46:26.524Z,16.93
2016-12-30T07:47:07.154Z,16.9
2016-12-30T07:47:47.786Z,16.9
2016-12-30T07:48:28.414Z,16.86
2016-12-30T07:49:09.085Z,16.9
2016-12-30T07:49:49.774Z,16.93
2016-12-30T07:50:30.408Z,16.9
2016-12-30T07:51:11.054Z,16.86
2016-12-30T07:51:51.676Z,16.89
2016-12-30T07:52:32.305Z,16.88
2016-12-30T07:53:12.935Z,16.85
2016-12-30T07:53:53.566Z,16.9
2016-12-30T07:54:34.215Z,16.92
2016-12-30T07:55:14.851Z,16.96
2016-12-30T07:55:55.561Z,16.92
2016-12-30T07:56:36.225Z,16.86
2016-12-30T07:57:16.850Z,16.89
2016-12-30T07:57:57.510Z,16.85
2016-12-30T07:58:38.144Z,16.77
2016-12-30T07:59:18.788Z,16.83
2016-12-30T07:59:59.525Z,16.85
2016-12-30T08:00:40.168Z,16.93
2016-12-30T08:01:20.807Z,16.95
2016-12-30T08:02:01.517Z,16.93
2016-12-30T08:02:42.163Z,16.95
2016-12-30T08:03:22.790Z,16.9
2016-12-30T08:04:03.468Z,16.89
2016-12-30T08:04:44.111Z,16.89
2016-12-30T08:05:24.737Z,16.89
2016-12-30T08:06:05.443Z,16.9
2016-12-30T08:06:46.152Z,16.88
2016-12-30T08:07:26.786Z,16.89
2016-12-30T08:08:07.422Z,16.89
2016-12-30T08:08:48.086Z,16.93
2016-12-30T08:09:28.717Z,16.92
2016-12-30T08:10:09.354Z,16.89
2016-12-30T08:10:50.101Z,16.86
2016-12-30T08:11:30.727Z,16.92
2016-12-30T08:12:11.364Z,16.92
2016-12-30T08:12:52.065Z,16.95
2016-12-30T08:13:32.700Z,16.92
2016-12-30T08:14:13.330Z,16.89
2016-12-30T08:14:54.048Z,16.89
2016-12-30T08:15:34.684Z,16.93
2016-12-30T08:16:15.334Z,16.9
2016-12-30T08:16:56.003Z,16.8
2016-12-30T08:17:36.640Z,16.8
2016-12-30T08:18:17.264Z,16.88
2016-12-30T08:18:57.903Z,16.88
2016-12-30T08:19:38.535Z,16.93
2016-12-30T08:20:19.164Z,16.85
2016-12-30T08:20:59.792Z,16.89
2016-12-30T08:21:40.444Z,16.9
2016-12-30T08:22:21.079Z,16.89
2016-12-30T08:23:01.712Z,16.89
2016-12-30T08:23:42.371Z,16.86
2016-12-30T08:24:23.008Z,16.88
2016-12-30T08:25:03.632Z,16.89
2016-12-30T08:25:44.276Z,16.86
2016-12-30T08:26:24.930Z,16.85
2016-12-30T08:27:05.579Z,16.9
2016-12-30T08:27:46.211Z,16.8
2016-12-30T08:28:26.833Z,16.88
2016-12-30T08:29:07.464Z,16.8
2016-12-30T08:29:48.097Z,16.83
2016-12-30T08:30:28.713Z,16.9
2016-12-30T08:31:09.338Z,16.88
2016-12-30T08:31:49.958Z,16.78
2016-12-30T08:32:30.578Z,16.9
2016-12-30T08:33:11.295Z,16.81
2016-12-30T08:33:51.929Z,16.86
2016-12-30T08:34:32.568Z,16.92
2016-12-30T08:35:13.201Z,16.89
2016-12-30T08:35:53.824Z,16.93
2016-12-30T08:36:34.453Z,16.86
2016-12-30T08:37:15.083Z,16.88
2016-12-30T08:37:55.716Z,16.86
2016-12-30T08:38:36.344Z,16.88
2016-12-30T08:39:17.082Z,16.9
2016-12-30T08:39:57.724Z,16.85
2016-12-30T08:40:38.357Z,16.78
2016-12-30T08:41:18.985Z,16.77
2016-12-30T08:41:59.613Z,16.85
2016-12-30T08:42:40.249Z,16.85
2016-12-30T08:43:20.866Z,16.86
2016-12-30T08:44:01.527Z,16.92
2016-12-30T08:44:42.160Z,16.93
2016-12-30T08:45:22.796Z,16.81
2016-12-30T08:46:03.420Z,16.83